Time;durP1;ratioP1;P1;durP2;ratioP2;P2;SDS_P1;SDS_P2;PMS_P1;PMS_P2;Temp;Humidity;BMP_temperature;BMP_pressure;BME280_temperature;BME280_humidity;BME280_pressure;Samples;Min_cycle;Max_cycle;Signal;HPM_P1;HPM_P2
2021/10/12 00:02:19;;;;;;;;;;;;;;;11.32;75.33;100486.63;5029670;28;20439;-72
2021/10/12 00:04:44;;;;;;;;;;;;;;;11.33;75.35;100479.53;5030072;28;20012;-73
2021/10/12 00:07:11;;;;;;;;;;;;;;;11.34;75.14;100471.53;5032221;28;19963;-71
2021/10/12 00:09:36;;;;;;;;;;;;;;;11.36;74.71;100466.22;5012765;28;20008;-71
2021/10/12 00:12:01;;;;;;;;;;;;;;;11.36;75.04;100459.16;5029337;28;20007;-73
2021/10/12 00:14:27;;;;;;;;;;;;;;;11.38;75.28;100456.44;5030132;28;20004;-72
2021/10/12 00:16:52;;;;;;;;;;;;;;;11.39;74.70;100450.25;5029563;28;19939;-72
2021/10/12 00:19:17;;;;;;;;;;;;;;;11.37;74.76;100446.78;5030395;28;20295;-71
2021/10/12 00:21:43;;;;;;;;;;;;;;;11.36;75.04;100435.38;5029012;28;19917;-72
2021/10/12 00:24:09;;;;;;;;;;;;;;;11.38;74.82;100440.63;5011919;28;19924;-73
2021/10/12 00:26:34;;;;;;;;;;;;;;;11.36;74.63;100445.94;5029621;28;20526;-71
2021/10/12 00:28:59;;;;;;;;;;;;;;;11.37;75.11;100437.13;5012289;28;19921;-71
2021/10/12 00:31:25;;;;;;;;;;;;;;;11.38;74.75;100437.97;5029210;28;19917;-73
2021/10/12 00:33:50;;;;;;;;;;;;;;;11.38;75.48;100435.34;5029694;28;19921;-74
2021/10/12 00:36:15;;;;;;;;;;;;;;;11.42;74.94;100441.31;5030517;28;19917;-73
2021/10/12 00:38:40;;;;;;;;;;;;;;;11.40;74.64;100436.13;4995427;28;19983;-74
2021/10/12 00:41:06;;;;;;;;;;;;;;;11.38;75.25;100435.34;5028539;28;20390;-72
2021/10/12 00:43:31;;;;;;;;;;;;;;;11.36;75.48;100432.75;5029352;28;20436;-73
2021/10/12 00:45:58;;;;;;;;;;;;;;;11.36;75.31;100416.06;5028780;28;20476;-72
2021/10/12 00:48:23;;;;;;;;;;;;;;;11.33;75.15;100414.41;5029141;28;20291;-72
2021/10/12 00:50:49;;;;;;;;;;;;;;;11.33;75.60;100411.75;5011006;28;19916;-72
2021/10/12 00:53:14;;;;;;;;;;;;;;;11.35;76.10;100403.78;5011872;28;20295;-73
2021/10/12 00:55:40;;;;;;;;;;;;;;;11.30;75.75;100401.34;5029532;28;19999;-74
2021/10/12 00:58:09;;;;;;;;;;;;;;;11.28;75.83;100399.69;5029508;28;19924;-73
2021/10/12 01:00:34;;;;;;;;;;;;;;;11.30;76.16;100397.84;4987131;28;19924;-72
2021/10/12 01:03:00;;;;;;;;;;;;;;;11.33;76.39;100409.13;5011579;28;19917;-73
2021/10/12 01:05:25;;;;;;;;;;;;;;;11.33;76.08;100403.84;5029775;28;19964;-73
2021/10/12 01:07:50;;;;;;;;;;;;;;;11.32;76.23;100399.50;5026621;28;19936;-75
2021/10/12 01:10:17;;;;;;;;;;;;;;;11.32;76.18;100409.19;5011333;28;19940;-73
2021/10/12 01:12:42;;;;;;;;;;;;;;;11.30;76.12;100403.13;5013704;28;19963;-72
2021/10/12 01:15:08;;;;;;;;;;;;;;;11.29;75.88;100404.03;5035420;28;19918;-72
2021/10/12 01:17:34;;;;;;;;;;;;;;;11.28;76.21;100399.69;5031737;28;19923;-72
2021/10/12 01:20:00;;;;;;;;;;;;;;;11.26;76.27;100388.34;5030059;28;19921;-72
2021/10/12 01:22:25;;;;;;;;;;;;;;;11.27;76.81;100395.31;5028819;28;19917;-72
2021/10/12 01:24:50;;;;;;;;;;;;;;;11.25;76.51;100394.53;5029886;28;19921;-72
2021/10/12 01:27:19;;;;;;;;;;;;;;;11.21;75.66;100388.53;5028335;28;19921;-72
2021/10/12 01:29:44;;;;;;;;;;;;;;;11.21;76.70;100390.31;5029247;28;19939;-73
2021/10/12 01:32:10;;;;;;;;;;;;;;;11.24;76.35;100384.91;5028757;28;20380;-73
2021/10/12 01:34:35;;;;;;;;;;;;;;;11.23;76.33;100375.28;5029630;28;19924;-73
2021/10/12 01:37:00;;;;;;;;;;;;;;;11.20;76.50;100372.75;5011138;28;20672;-72
2021/10/12 01:39:28;;;;;;;;;;;;;;;11.16;77.17;100370.25;5028652;28;20395;-73
2021/10/12 01:41:53;;;;;;;;;;;;;;;11.16;76.66;100372.03;5028290;28;20480;-73
2021/10/12 01:44:18;;;;;;;;;;;;;;;11.16;76.65;100372.03;5028816;28;20004;-73
2021/10/12 01:46:43;;;;;;;;;;;;;;;11.18;76.81;100370.19;5011133;28;19921;-73
2021/10/12 01:49:09;;;;;;;;;;;;;;;11.17;77.03;100363.19;5011764;28;19931;-73
2021/10/12 01:51:34;;;;;;;;;;;;;;;11.17;76.44;100358.78;5031981;28;19960;-72
2021/10/12 01:54:00;;;;;;;;;;;;;;;11.17;76.33;100357.91;5032439;28;19923;-73
2021/10/12 01:56:25;;;;;;;;;;;;;;;11.16;76.14;100356.19;5015203;28;19921;-73
2021/10/12 01:58:51;;;;;;;;;;;;;;;11.16;76.20;100362.31;5033354;28;19923;-71
2021/10/12 02:01:23;;;;;;;;;;;;;;;11.16;76.38;100356.19;5032014;28;19921;-72
2021/10/12 02:03:49;;;;;;;;;;;;;;;11.13;75.85;100358.97;5032695;28;19923;-71
2021/10/12 02:06:14;;;;;;;;;;;;;;;11.10;76.13;100351.16;5032260;28;20299;-72
2021/10/12 02:08:39;;;;;;;;;;;;;;;11.03;76.24;100349.72;5032508;28;19975;-72
2021/10/12 02:11:04;;;;;;;;;;;;;;;11.01;76.37;100349.78;5034204;28;19923;-71
2021/10/12 02:13:30;;;;;;;;;;;;;;;11.00;76.32;100347.19;5032213;28;19924;-72
2021/10/12 02:15:55;;;;;;;;;;;;;;;10.98;76.26;100343.75;5032410;28;20399;-72
2021/10/12 02:18:20;;;;;;;;;;;;;;;11.01;76.25;100351.56;5015437;28;19925;-73
2021/10/12 02:20:46;;;;;;;;;;;;;;;11.02;76.22;100348.00;5013252;28;19917;-73
2021/10/12 02:23:11;;;;;;;;;;;;;;;11.03;76.44;100349.72;5021119;28;20395;-72
2021/10/12 02:25:36;;;;;;;;;;;;;;;11.01;76.21;100357.69;5031950;28;19917;-71
2021/10/12 02:28:01;;;;;;;;;;;;;;;11.02;76.29;100351.50;5021390;28;19948;-72
2021/10/12 02:30:27;;;;;;;;;;;;;;;11.04;76.16;100347.00;5031005;28;19924;-72
2021/10/12 02:32:52;;;;;;;;;;;;;;;11.05;76.16;100345.22;5032322;28;19927;-71
2021/10/12 02:35:17;;;;;;;;;;;;;;;11.02;75.65;100346.22;5032005;28;19917;-71
2021/10/12 02:37:42;;;;;;;;;;;;;;;11.01;76.09;100343.66;5031193;28;19917;-71
2021/10/12 02:40:08;;;;;;;;;;;;;;;11.01;76.11;100336.59;5030925;28;19917;-71
2021/10/12 02:42:33;;;;;;;;;;;;;;;11.01;76.04;100326.03;5031659;28;19921;-72
2021/10/12 02:44:58;;;;;;;;;;;;;;;11.01;75.83;100322.56;5031303;28;19921;-72
2021/10/12 02:47:24;;;;;;;;;;;;;;;10.98;76.02;100318.25;5031641;28;20402;-72
2021/10/12 02:49:49;;;;;;;;;;;;;;;10.95;76.00;100313.97;5032250;28;19949;-72
2021/10/12 02:52:14;;;;;;;;;;;;;;;10.93;75.93;100302.63;5031006;28;20004;-73
2021/10/12 02:54:39;;;;;;;;;;;;;;;10.88;76.14;100290.56;5013810;28;19969;-72
2021/10/12 02:57:05;;;;;;;;;;;;;;;10.85;76.43;100283.59;4997395;28;20501;-72
2021/10/12 02:59:30;;;;;;;;;;;;;;;10.80;76.31;100276.81;5031033;28;20410;-73
2021/10/12 03:01:55;;;;;;;;;;;;;;;10.77;76.36;100276.97;5030167;28;20384;-70
2021/10/12 03:04:21;;;;;;;;;;;;;;;10.78;76.35;100276.03;5028487;28;19952;-73
2021/10/12 03:06:46;;;;;;;;;;;;;;;10.77;76.54;100275.16;5013013;28;20496;-73
2021/10/12 03:09:12;;;;;;;;;;;;;;;10.74;76.35;100262.97;5013118;28;19987;-71
2021/10/12 03:11:37;;;;;;;;;;;;;;;10.74;76.91;100256.84;5030285;28;19997;-71
2021/10/12 03:14:02;;;;;;;;;;;;;;;10.77;76.53;100266.41;5030654;28;20022;-71
2021/10/12 03:16:27;;;;;;;;;;;;;;;10.78;76.48;100276.91;5013321;28;19917;-71
2021/10/12 03:18:53;;;;;;;;;;;;;;;10.80;76.15;100275.03;5030894;28;19982;-72
2021/10/12 03:21:19;;;;;;;;;;;;;;;10.79;76.18;100275.13;5041536;28;19917;-72
2021/10/12 03:23:44;;;;;;;;;;;;;;;10.74;76.38;100260.34;5033004;28;19921;-72
2021/10/12 03:26:09;;;;;;;;;;;;;;;10.75;76.40;100263.81;5033071;28;20683;-73
2021/10/12 03:28:35;;;;;;;;;;;;;;;10.76;76.21;100269.97;5032561;28;19927;-73
2021/10/12 03:31:00;;;;;;;;;;;;;;;10.77;76.09;100269.91;5049956;28;19923;-73
2021/10/12 03:33:25;;;;;;;;;;;;;;;10.80;75.93;100268.91;5050723;28;19923;-73
2021/10/12 03:35:56;;;;;;;;;;;;;;;10.80;75.96;100272.41;5051030;28;19966;-73
2021/10/12 03:38:22;;;;;;;;;;;;;;;10.80;75.61;100269.75;5050849;28;19939;-73
2021/10/12 03:40:47;;;;;;;;;;;;;;;10.81;76.13;100268.00;5049634;28;19920;-73
2021/10/12 03:43:12;;;;;;;;;;;;;;;10.77;76.09;100269.91;5049849;28;19936;-71
2021/10/12 03:45:38;;;;;;;;;;;;;;;10.77;76.07;100258.50;5032764;28;19916;-72
2021/10/12 03:48:03;;;;;;;;;;;;;;;10.78;76.33;100266.34;5032709;28;19921;-73
2021/10/12 03:50:28;;;;;;;;;;;;;;;10.80;76.21;100261.84;5048326;28;19927;-72
2021/10/12 03:52:53;;;;;;;;;;;;;;;10.81;75.85;100263.59;5032606;28;19964;-72
2021/10/12 03:55:19;;;;;;;;;;;;;;;10.79;76.25;100262.78;5032567;28;19948;-72
2021/10/12 03:57:44;;;;;;;;;;;;;;;10.80;76.32;100263.63;5050263;28;19928;-73
2021/10/12 04:00:09;;;;;;;;;;;;;;;10.76;76.21;100264.72;5049803;28;19924;-72
2021/10/12 04:02:35;;;;;;;;;;;;;;;10.71;76.25;100262.25;5049526;28;19924;-72
2021/10/12 04:05:00;;;;;;;;;;;;;;;10.68;76.60;100260.59;5041461;28;20342;-73
2021/10/12 04:07:27;;;;;;;;;;;;;;;10.68;76.23;100255.34;5030087;28;20385;-73
2021/10/12 04:09:52;;;;;;;;;;;;;;;10.69;76.13;100250.91;5030521;28;20285;-72
2021/10/12 04:12:18;;;;;;;;;;;;;;;10.69;76.39;100248.28;5028542;28;19917;-72
2021/10/12 04:14:43;;;;;;;;;;;;;;;10.70;76.33;100245.56;5029873;28;19925;-73
2021/10/12 04:17:08;;;;;;;;;;;;;;;10.70;76.27;100242.06;5028638;28;19921;-73
2021/10/12 04:19:33;;;;;;;;;;;;;;;10.66;76.26;100241.34;5029994;28;19924;-72
2021/10/12 04:21:59;;;;;;;;;;;;;;;10.65;76.20;100234.34;5029227;28;19921;-73
2021/10/12 04:24:25;;;;;;;;;;;;;;;10.67;76.34;100234.28;5012736;28;20368;-73
2021/10/12 04:26:50;;;;;;;;;;;;;;;10.67;76.24;100231.66;5012324;28;19921;-73
2021/10/12 04:29:15;;;;;;;;;;;;;;;10.67;76.26;100229.88;5029947;28;19928;-72
2021/10/12 04:31:40;;;;;;;;;;;;;;;10.69;75.83;100225.41;5029606;28;19917;-72
2021/10/12 04:34:06;;;;;;;;;;;;;;;10.67;76.13;100224.59;5030013;28;19932;-74
2021/10/12 04:36:31;;;;;;;;;;;;;;;10.66;76.11;100228.16;5031868;28;19921;-72
2021/10/12 04:38:56;;;;;;;;;;;;;;;10.67;75.36;100229.03;5012040;28;19921;-71
2021/10/12 04:41:21;;;;;;;;;;;;;;;10.67;75.78;100227.25;5029412;28;19917;-72
2021/10/12 04:43:47;;;;;;;;;;;;;;;10.68;75.64;100233.38;5029899;28;19952;-72
2021/10/12 04:46:17;;;;;;;;;;;;;;;10.63;75.10;100230.94;5029838;28;19925;-73
2021/10/12 04:48:43;;;;;;;;;;;;;;;10.60;75.23;100231.06;5012070;28;19944;-72
2021/10/12 04:51:08;;;;;;;;;;;;;;;10.62;75.01;100233.63;4995296;28;20386;-72
2021/10/12 04:53:33;;;;;;;;;;;;;;;10.62;74.99;100231.00;5033656;28;19917;-74
2021/10/12 04:55:58;;;;;;;;;;;;;;;10.64;74.75;100222.09;5013087;28;19917;-72
2021/10/12 04:58:23;;;;;;;;;;;;;;;10.66;74.92;100225.53;5011737;28;19917;-73
2021/10/12 05:00:49;;;;;;;;;;;;;;;10.64;74.08;100222.09;5012445;28;20002;-72
2021/10/12 05:03:14;;;;;;;;;;;;;;;10.64;74.54;100218.63;5011576;28;19983;-72
2021/10/12 05:05:39;;;;;;;;;;;;;;;10.68;74.60;100220.19;5011223;28;19983;-73
2021/10/12 05:08:04;;;;;;;;;;;;;;;10.68;74.76;100210.50;5028466;28;19952;-72
2021/10/12 05:10:30;;;;;;;;;;;;;;;10.68;74.40;100205.25;5015601;28;19929;-71
2021/10/12 05:12:55;;;;;;;;;;;;;;;10.68;74.99;100199.97;5009573;28;19925;-72
2021/10/12 05:15:28;;;;;;;;;;;;;;;10.70;74.55;100198.09;5010050;28;20361;-72
2021/10/12 05:17:54;;;;;;;;;;;;;;;10.69;74.30;100198.19;5008753;28;20365;-72
2021/10/12 05:20:19;;;;;;;;;;;;;;;10.68;74.68;100199.09;5007452;28;19928;-71
2021/10/12 05:22:45;;;;;;;;;;;;;;;10.66;74.57;100196.53;5031265;28;19964;-72
2021/10/12 05:25:11;;;;;;;;;;;;;;;10.66;74.64;100191.25;5033922;28;19932;-72
2021/10/12 05:27:36;;;;;;;;;;;;;;;10.66;74.38;100188.63;5033191;28;20402;-73
2021/10/12 05:30:06;;;;;;;;;;;;;;;10.66;74.88;100185.13;5033416;28;19966;-73
2021/10/12 05:32:31;;;;;;;;;;;;;;;10.66;74.41;100187.78;5033786;28;20421;-70
2021/10/12 05:34:58;;;;;;;;;;;;;;;10.64;74.23;100179.06;5033461;28;19956;-72
2021/10/12 05:37:23;;;;;;;;;;;;;;;10.65;74.50;100188.69;5015803;28;20391;-71
2021/10/12 05:39:48;;;;;;;;;;;;;;;10.62;74.30;100176.47;5015531;28;19917;-72
2021/10/12 05:42:13;;;;;;;;;;;;;;;10.64;74.85;100185.19;5031920;28;19928;-72
2021/10/12 05:44:39;;;;;;;;;;;;;;;10.67;74.77;100182.41;5014839;28;19925;-72
2021/10/12 05:47:04;;;;;;;;;;;;;;;10.65;74.20;100180.75;5032588;28;19932;-72
2021/10/12 05:49:29;;;;;;;;;;;;;;;10.63;74.36;100182.59;5032315;28;20007;-73
2021/10/12 05:51:54;;;;;;;;;;;;;;;10.63;74.37;100175.56;5032262;28;19940;-73
2021/10/12 05:54:23;;;;;;;;;;;;;;;10.64;74.73;100177.28;5032582;28;19924;-71
2021/10/12 05:56:56;;;;;;;;;;;;;;;10.61;75.53;100171.25;5032574;28;19928;-72
2021/10/12 05:59:21;;;;;;;;;;;;;;;10.56;75.75;100176.75;5032741;28;19921;-72
2021/10/12 06:01:46;;;;;;;;;;;;;;;10.56;75.76;100173.25;5031922;28;19956;-72
2021/10/12 06:04:12;;;;;;;;;;;;;;;10.59;76.33;100167.84;5014582;28;19965;-71
2021/10/12 06:06:37;;;;;;;;;;;;;;;10.58;76.43;100174.03;5032572;28;19923;-73
2021/10/12 06:09:03;;;;;;;;;;;;;;;10.59;76.55;100170.50;5034793;28;19921;-72
2021/10/12 06:11:28;;;;;;;;;;;;;;;10.53;76.42;100161.94;5013260;28;20376;-72
2021/10/12 06:13:55;;;;;;;;;;;;;;;10.50;76.61;100155.91;4998722;28;19917;-73
2021/10/12 06:16:20;;;;;;;;;;;;;;;10.46;77.01;100163.13;5032480;28;19917;-72
2021/10/12 06:18:45;;;;;;;;;;;;;;;10.47;76.84;100151.63;5032499;28;19936;-73
2021/10/12 06:21:11;;;;;;;;;;;;;;;10.44;77.11;100157.03;5014082;28;20387;-71
2021/10/12 06:23:36;;;;;;;;;;;;;;;10.46;77.46;100156.97;5015498;28;20477;-73
2021/10/12 06:26:01;;;;;;;;;;;;;;;10.47;77.28;100151.63;5034620;28;19917;-73
2021/10/12 06:28:28;;;;;;;;;;;;;;;10.48;76.92;100153.38;5035780;28;19921;-71
2021/10/12 06:30:53;;;;;;;;;;;;;;;10.49;77.50;100149.78;5032626;28;19928;-71
2021/10/12 06:33:19;;;;;;;;;;;;;;;10.52;77.25;100149.66;5032051;28;20372;-72
2021/10/12 06:35:44;;;;;;;;;;;;;;;10.52;77.11;100149.66;5031628;28;19925;-71
2021/10/12 06:38:10;;;;;;;;;;;;;;;10.49;77.60;100141.88;5031598;28;19957;-71
2021/10/12 06:40:36;;;;;;;;;;;;;;;10.45;77.89;100145.56;5030794;28;19975;-73
2021/10/12 06:43:01;;;;;;;;;;;;;;;10.43;77.69;100149.19;5030641;28;19985;-71
2021/10/12 06:45:27;;;;;;;;;;;;;;;10.44;77.75;100145.66;5031683;28;19917;-72
2021/10/12 06:47:52;;;;;;;;;;;;;;;10.46;77.71;100134.13;5031724;28;19921;-73
2021/10/12 06:50:19;;;;;;;;;;;;;;;10.51;78.41;100141.84;5031063;28;19917;-72
2021/10/12 06:52:46;;;;;;;;;;;;;;;10.55;78.22;100137.28;5031428;28;19917;-72
2021/10/12 06:55:12;;;;;;;;;;;;;;;10.55;78.15;100134.63;5031158;28;19925;-72
2021/10/12 06:57:37;;;;;;;;;;;;;;;10.57;77.82;100132.78;5030325;28;19917;-72
2021/10/12 07:00:04;;;;;;;;;;;;;;;10.57;77.62;100132.78;5030760;28;19936;-73
2021/10/12 07:02:29;;;;;;;;;;;;;;;10.59;77.34;100138.88;5031014;28;20012;-72
2021/10/12 07:04:54;;;;;;;;;;;;;;;10.62;77.83;100136.94;5014059;28;19999;-73
2021/10/12 07:07:19;;;;;;;;;;;;;;;10.60;77.76;100132.66;5030337;28;19928;-72
2021/10/12 07:09:45;;;;;;;;;;;;;;;10.62;78.33;100128.19;5028110;28;19917;-72
2021/10/12 07:12:10;;;;;;;;;;;;;;;10.61;77.83;100124.69;5030380;28;19927;-70
2021/10/12 07:14:35;;;;;;;;;;;;;;;10.57;78.23;100125.72;5031097;28;19928;-71
2021/10/12 07:17:02;;;;;;;;;;;;;;;10.58;78.12;100121.31;5018767;28;20333;-75
2021/10/12 07:19:27;;;;;;;;;;;;;;;10.60;78.46;100127.38;5050937;28;19928;-71
2021/10/12 07:21:55;;;;;;;;;;;;;;;10.55;78.76;100127.56;5050478;28;19917;-72
2021/10/12 07:24:21;;;;;;;;;;;;;;;10.45;78.74;100118.34;5050749;28;19917;-72
2021/10/12 07:26:46;;;;;;;;;;;;;;;10.42;79.63;100121.97;5032559;28;20426;-71
2021/10/12 07:29:12;;;;;;;;;;;;;;;10.40;79.95;100120.34;5050640;28;19942;-71
2021/10/12 07:31:37;;;;;;;;;;;;;;;10.41;79.91;100117.66;5032249;28;19913;-73
2021/10/12 07:34:02;;;;;;;;;;;;;;;10.38;80.14;100109.00;5050520;28;19921;-75
2021/10/12 07:36:27;;;;;;;;;;;;;;;10.36;80.11;100117.00;5050730;28;19927;-72
2021/10/12 07:38:53;;;;;;;;;;;;;;;10.35;80.63;100111.78;5049694;28;20388;-73
2021/10/12 07:41:20;;;;;;;;;;;;;;;10.32;80.22;100103.06;5022654;28;20766;-73
2021/10/12 07:43:45;;;;;;;;;;;;;;;10.35;80.40;100102.09;5017875;28;20020;-72
2021/10/12 07:46:10;;;;;;;;;;;;;;;10.41;81.16;100101.84;5024004;28;20009;-72
2021/10/12 07:48:35;;;;;;;;;;;;;;;10.46;80.75;100102.50;5022974;28;19984;-72
2021/10/12 07:51:01;;;;;;;;;;;;;;;10.52;81.26;100096.94;5021919;28;20311;-73
2021/10/12 07:53:28;;;;;;;;;;;;;;;10.56;80.85;100096.78;5006031;28;20391;-76
2021/10/12 07:55:57;;;;;;;;;;;;;;;10.59;80.29;100097.53;5023652;28;19927;-71
2021/10/12 07:58:22;;;;;;;;;;;;;;;10.63;80.32;100096.47;5024111;28;20411;-71
2021/10/12 08:00:47;;;;;;;;;;;;;;;10.66;80.05;100096.34;5022742;28;19957;-71
2021/10/12 08:03:13;;;;;;;;;;;;;;;10.71;80.25;100101.41;5024204;28;20560;-71
2021/10/12 08:05:38;;;;;;;;;;;;;;;10.71;80.07;100093.50;5021637;28;20458;-72
2021/10/12 08:08:04;;;;;;;;;;;;;;;10.69;80.21;100092.69;5024028;28;19933;-71
2021/10/12 08:10:29;;;;;;;;;;;;;;;10.69;80.78;100087.44;5008407;28;19921;-71
2021/10/12 08:12:57;;;;;;;;;;;;;;;10.71;80.69;100086.44;5005755;28;19921;-69
2021/10/12 08:15:23;;;;;;;;;;;;;;;10.68;80.95;100077.78;5023869;28;19921;-71
2021/10/12 08:17:48;;;;;;;;;;;;;;;10.64;80.45;100073.59;5024000;28;20292;-70
2021/10/12 08:20:14;;;;;;;;;;;;;;;10.65;81.35;100075.28;5006054;28;20278;-75
2021/10/12 08:22:39;;;;;;;;;;;;;;;10.67;80.46;100070.81;5007000;28;19983;-74
2021/10/12 08:25:08;;;;;;;;;;;;;;;10.69;81.19;100066.34;5025475;28;20011;-71
2021/10/12 08:27:33;;;;;;;;;;;;;;;10.74;80.81;100064.34;5023962;28;19947;-73
2021/10/12 08:29:58;;;;;;;;;;;;;;;10.76;80.88;100064.28;5024019;28;20376;-74
2021/10/12 08:32:23;;;;;;;;;;;;;;;10.74;80.83;100067.84;5022969;28;19940;-77
2021/10/12 08:34:49;;;;;;;;;;;;;;;10.77;80.42;100069.47;5000898;28;21455;-71
2021/10/12 08:37:14;;;;;;;;;;;;;;;10.79;80.50;100057.06;5016037;28;19925;-72
2021/10/12 08:39:43;;;;;;;;;;;;;;;10.82;80.54;100058.72;5002779;28;20399;-71
2021/10/12 08:42:11;;;;;;;;;;;;;;;10.79;80.55;100054.44;5021654;28;19975;-69
2021/10/12 08:44:50;;;;;;;;;;;;;;;10.81;80.64;100055.22;5022419;28;19917;-68
2021/10/12 08:47:16;;;;;;;;;;;;;;;10.87;81.57;100059.34;5022995;28;19932;-70
2021/10/12 08:49:41;;;;;;;;;;;;;;;10.93;80.39;100054.66;5023796;28;19921;-70
2021/10/12 08:52:06;;;;;;;;;;;;;;;10.96;79.98;100049.25;5022564;28;19921;-70
2021/10/12 08:54:31;;;;;;;;;;;;;;;10.96;80.11;100043.97;5023217;28;19921;-70
2021/10/12 08:56:57;;;;;;;;;;;;;;;10.96;80.34;100043.13;5024161;28;19928;-71
2021/10/12 08:59:22;;;;;;;;;;;;;;;10.96;79.99;100043.97;5023142;28;20347;-70
2021/10/12 09:01:58;;;;;;;;;;;;;;;10.98;80.08;100049.19;5021321;28;19921;-70
2021/10/12 09:04:23;;;;;;;;;;;;;;;11.02;80.07;100047.25;5023369;28;20300;-69
2021/10/12 09:06:53;;;;;;;;;;;;;;;11.05;80.23;100041.81;5023398;28;19921;-70
2021/10/12 09:09:32;;;;;;;;;;;;;;;11.07;79.78;100038.16;5023492;28;20853;-69
2021/10/12 09:11:57;;;;;;;;;;;;;;;11.12;79.53;100043.22;5023392;28;19921;-73
2021/10/12 09:14:22;;;;;;;;;;;;;;;11.13;80.08;100039.69;5024081;28;19947;-71
2021/10/12 09:16:48;;;;;;;;;;;;;;;11.17;80.59;100043.88;5023768;28;19921;-69
2021/10/12 09:19:14;;;;;;;;;;;;;;;11.21;80.22;100037.53;5023495;28;20292;-70
2021/10/12 09:21:41;;;;;;;;;;;;;;;11.27;79.81;100034.59;5032809;28;19925;-69
2021/10/12 09:24:09;;;;;;;;;;;;;;;11.32;79.67;100035.25;5044299;28;19936;-70
2021/10/12 09:26:38;;;;;;;;;;;;;;;11.36;79.40;100036.78;5043071;28;19976;-70
2021/10/12 09:29:08;;;;;;;;;;;;;;;11.35;78.93;100029.81;5042637;28;19920;-69
2021/10/12 09:31:38;;;;;;;;;;;;;;;11.42;79.18;100021.56;5001466;28;19929;-70
2021/10/12 09:34:04;;;;;;;;;;;;;;;11.45;79.04;100019.66;5003701;28;19929;-69
2021/10/12 09:36:34;;;;;;;;;;;;;;;11.51;78.81;100021.97;5003790;28;19921;-69
2021/10/12 09:38:59;;;;;;;;;;;;;;;11.53;78.88;100016.63;5003615;28;19948;-71
2021/10/12 09:41:25;;;;;;;;;;;;;;;11.58;79.08;100022.53;5002198;28;20016;-68
2021/10/12 09:43:51;;;;;;;;;;;;;;;11.64;78.58;100019.59;5002770;28;19925;-70
2021/10/12 09:46:20;;;;;;;;;;;;;;;11.70;78.80;100010.50;5003384;28;19928;-69
2021/10/12 09:48:46;;;;;;;;;;;;;;;11.77;77.91;100009.28;5002972;28;20293;-70
2021/10/12 09:51:15;;;;;;;;;;;;;;;11.82;77.89;100008.09;5002677;28;19971;-71
2021/10/12 09:53:42;;;;;;;;;;;;;;;11.86;77.43;100005.28;5003206;28;20675;-70
2021/10/12 09:56:08;;;;;;;;;;;;;;;11.84;77.40;100010.69;5003303;28;19922;-71
2021/10/12 09:58:34;;;;;;;;;;;;;;;11.94;77.82;100008.44;5001406;28;19928;-68
2021/10/12 10:01:06;;;;;;;;;;;;;;;12.02;78.02;100001.81;5002826;28;19928;-70
2021/10/12 10:03:32;;;;;;;;;;;;;;;12.06;77.74;100002.53;5003485;28;19922;-70
2021/10/12 10:06:01;;;;;;;;;;;;;;;12.04;77.69;100004.41;5003442;28;20352;-71
2021/10/12 10:08:28;;;;;;;;;;;;;;;12.02;77.84;100003.63;5003076;28;20016;-71
2021/10/12 10:10:53;;;;;;;;;;;;;;;12.02;78.66;99993.91;5001859;28;19928;-70
2021/10/12 10:13:19;;;;;;;;;;;;;;;12.00;78.57;99993.13;5006966;28;19926;-70
2021/10/12 10:15:45;;;;;;;;;;;;;;;11.98;78.18;100000.25;5025679;28;19921;-71
2021/10/12 10:18:11;;;;;;;;;;;;;;;11.97;78.74;99990.63;5026678;28;20311;-70
2021/10/12 10:20:36;;;;;;;;;;;;;;;11.95;78.61;99987.22;5026225;28;19928;-71
2021/10/12 10:23:02;;;;;;;;;;;;;;;11.93;78.79;99983.78;5027082;28;19928;-69
2021/10/12 10:25:29;;;;;;;;;;;;;;;11.87;79.70;99978.84;5008727;28;20680;-71
2021/10/12 10:28:17;;;;;;;;;;;;;;;11.79;80.00;99981.00;5025838;28;19925;-70
2021/10/12 10:30:43;;;;;;;;;;;;;;;11.77;80.10;99972.28;5025402;28;19921;-71
2021/10/12 10:33:24;;;;;;;;;;;;;;;11.78;80.65;99971.34;5026220;28;19928;-71
2021/10/12 10:35:55;;;;;;;;;;;;;;;11.78;80.85;99966.91;5025975;28;19921;-70
2021/10/12 10:38:20;;;;;;;;;;;;;;;11.78;80.69;99971.34;5026225;28;19921;-70
2021/10/12 10:40:47;;;;;;;;;;;;;;;11.74;80.57;99968.03;5025292;28;19943;-70
2021/10/12 10:43:12;;;;;;;;;;;;;;;11.71;81.04;99968.16;5025426;28;19929;-69
2021/10/12 10:45:44;;;;;;;;;;;;;;;11.69;80.84;99966.53;5027362;28;19967;-69
2021/10/12 10:48:13;;;;;;;;;;;;;;;11.68;81.18;99963.03;5028488;28;20636;-72
2021/10/12 10:50:39;;;;;;;;;;;;;;;11.67;81.31;99963.97;5028026;28;19917;-71
2021/10/12 10:53:09;;;;;;;;;;;;;;;11.69;82.01;99956.84;5028415;28;19978;-70
2021/10/12 10:55:39;;;;;;;;;;;;;;;11.68;81.45;99959.56;5027507;28;20012;-70
2021/10/12 10:58:09;;;;;;;;;;;;;;;11.70;81.89;99952.41;5028720;28;20033;-70
2021/10/12 11:00:40;;;;;;;;;;;;;;;11.70;82.01;99960.34;5027488;28;19921;-71
2021/10/12 11:03:06;;;;;;;;;;;;;;;11.69;82.00;99958.59;5010939;28;20596;-71
2021/10/12 11:05:33;;;;;;;;;;;;;;;11.65;81.80;99947.34;5028700;28;19917;-70
2021/10/12 11:08:12;;;;;;;;;;;;;;;11.63;82.22;99946.56;5027900;28;20413;-70
2021/10/12 11:10:37;;;;;;;;;;;;;;;11.65;82.71;99947.34;5027465;28;20011;-69
2021/10/12 11:13:03;;;;;;;;;;;;;;;11.66;83.46;99941.13;5028598;28;19960;-70
2021/10/12 11:15:28;;;;;;;;;;;;;;;11.69;83.25;99937.47;5028045;28;19975;-71
2021/10/12 11:18:07;;;;;;;;;;;;;;;11.72;82.86;99938.19;5027756;28;20384;-70
2021/10/12 11:20:39;;;;;;;;;;;;;;;11.74;83.32;99935.44;5027581;28;19922;-70
2021/10/12 11:23:04;;;;;;;;;;;;;;;11.72;83.55;99932.91;5027583;28;19925;-71
2021/10/12 11:25:30;;;;;;;;;;;;;;;11.75;83.24;99927.47;5028120;28;20646;-70
2021/10/12 11:28:04;;;;;;;;;;;;;;;11.79;83.29;99929.03;5039637;28;19935;-69
2021/10/12 11:30:32;;;;;;;;;;;;;;;11.78;83.28;99931.72;5035491;28;19913;-71
2021/10/12 11:32:57;;;;;;;;;;;;;;;11.75;82.52;99916.06;5027875;28;19921;-71
2021/10/12 11:35:31;;;;;;;;;;;;;;;11.78;82.88;99927.28;5028530;28;19917;-70
2021/10/12 11:37:56;;;;;;;;;;;;;;;11.80;83.38;99921.94;5027572;28;19932;-70
2021/10/12 11:40:23;;;;;;;;;;;;;;;11.79;83.47;99921.09;5026283;28;20350;-67
2021/10/12 11:42:49;;;;;;;;;;;;;;;11.79;83.41;99913.16;5027769;28;19949;-72
2021/10/12 11:45:14;;;;;;;;;;;;;;;11.81;83.75;99906.03;5027993;28;20402;-70
2021/10/12 11:47:39;;;;;;;;;;;;;;;11.87;83.99;99914.59;5026605;28;19965;-70
2021/10/12 11:50:08;;;;;;;;;;;;;;;11.94;84.20;99910.69;5027461;28;19967;-70
2021/10/12 11:52:33;;;;;;;;;;;;;;;12.00;82.78;99910.34;5027065;28;19927;-71
2021/10/12 11:55:06;;;;;;;;;;;;;;;12.09;82.57;99914.31;5027480;28;20284;-71
2021/10/12 11:57:31;;;;;;;;;;;;;;;12.16;82.22;99903.31;5008805;28;20346;-70
2021/10/12 11:59:56;;;;;;;;;;;;;;;12.27;82.08;99902.72;5027344;28;19917;-70
2021/10/12 12:02:21;;;;;;;;;;;;;;;12.39;81.57;99894.13;5026710;28;19963;-71
2021/10/12 12:04:47;;;;;;;;;;;;;;;12.50;81.32;99890.88;5027055;28;19917;-70
2021/10/12 12:07:13;;;;;;;;;;;;;;;12.58;80.61;99893.13;5026428;28;20384;-70
2021/10/12 12:09:40;;;;;;;;;;;;;;;12.60;80.30;99888.59;5027050;28;20310;-70
2021/10/12 12:12:06;;;;;;;;;;;;;;;12.55;80.23;99886.22;5026874;28;19910;-71
2021/10/12 12:14:31;;;;;;;;;;;;;;;12.56;79.26;99887.06;5027129;28;19923;-71
2021/10/12 12:17:13;;;;;;;;;;;;;;;12.53;80.53;99882.81;5026987;28;20007;-70
2021/10/12 12:19:43;;;;;;;;;;;;;;;12.53;80.17;99884.56;5026598;28;20007;-69
2021/10/12 12:22:17;;;;;;;;;;;;;;;12.53;80.22;99888.09;5028954;28;19917;-71
2021/10/12 12:24:56;;;;;;;;;;;;;;;12.54;80.67;99883.66;5027060;28;20014;-70
2021/10/12 12:27:22;;;;;;;;;;;;;;;12.54;80.97;99886.28;5026450;28;20368;-70
2021/10/12 12:30:01;;;;;;;;;;;;;;;12.51;80.81;99883.84;5026489;28;19915;-72
2021/10/12 12:32:26;;;;;;;;;;;;;;;12.44;81.06;99884.16;5025982;28;24590;-71
2021/10/12 12:34:58;;;;;;;;;;;;;;;12.38;81.43;99879.22;5026349;28;19970;-70